If you wish to contribute or participate in the discussions about articles you are invited to join SKYbrary as a registered user

 Actions

Saint-Nazaire-Montoir Airport

From SKYbrary Wiki

LFRZ
Airport
ICAO: LFRZ – IATA: SNR
Summary
Name Saint-Nazaire-Montoir Airport
Region Europe
Territory France FR.gif
Location , Pays de la Loire
Serving St.-nazaire
Elevation 3.962 m
13 ft
13 ft3.962 m
Type medium airport
Coordinates 47° 18' 43.88" N, 2° 8' 57.05" W
Runways
Designator Length Width Surface ROPS
8/26 2400 m7,874.016 ft
45 m147.638 ft
ASP /


METAR
Observation LFRZ 230630Z AUTO 04007KT 010V070 7000 OVC009 11/11 Q1010 TEMPO 3000 DZRA
Station St-Nazaire
Date/Time 23 October 2019 06:30:00
Wind direction 40°
Wind speed 07 kts
Lowest cloud amount overcast
Temperature 11°C
Dew point 11°C
Humidity 100%
QNH 1010 hPa
Weather condition n/a